Time;durP1;ratioP1;P1;durP2;ratioP2;P2;SDS_P1;SDS_P2;PMS_P1;PMS_P2;Temp;Humidity;BMP_temperature;BMP_pressure;BME280_temperature;BME280_humidity;BME280_pressure;Samples;Min_cycle;Max_cycle;Signal;HPM_P1;HPM_P2
2023/04/02 00:00:04;;;;;;;26.88;18.83;;;15.10;91.00;;;;;;6213855;23;20000;-79
2023/04/02 00:02:31;;;;;;;22.65;16.42;;;15.00;91.10;;;;;;6215186;23;20001;-79
2023/04/02 00:05:18;;;;;;;21.88;15.77;;;14.90;90.80;;;;;;6215211;23;20004;-79
2023/04/02 00:07:47;;;;;;;23.05;16.70;;;15.00;91.10;;;;;;6215013;23;20004;-79
2023/04/02 00:10:26;;;;;;;20.33;15.50;;;15.00;91.20;;;;;;6214843;23;20447;-79
2023/04/02 00:13:21;;;;;;;23.05;16.08;;;14.90;91.10;;;;;;6213421;23;20641;-79
2023/04/02 00:15:49;;;;;;;26.65;17.23;;;14.90;91.20;;;;;;6148028;23;20004;-79
2023/04/02 00:18:20;;;;;;;26.00;18.08;;;14.90;91.10;;;;;;6186734;23;20364;-79
2023/04/02 00:20:51;;;;;;;25.27;17.70;;;14.80;91.10;;;;;;6213975;23;20001;-79
2023/04/02 00:23:18;;;;;;;24.67;17.67;;;14.80;91.30;;;;;;6212994;23;20016;-80
2023/04/02 00:25:46;;;;;;;22.92;17.42;;;14.80;91.40;;;;;;6213931;23;20009;-80
2023/04/02 00:28:16;;;;;;;24.88;18.33;;;14.80;91.40;;;;;;6213435;23;20015;-78
2023/04/02 00:30:50;;;;;;;28.17;18.98;;;14.90;91.40;;;;;;6214021;23;20005;-78
2023/04/02 00:33:19;;;;;;;23.90;17.38;;;14.90;91.50;;;;;;6186605;23;20407;-79
2023/04/02 00:35:46;;;;;;;25.98;17.45;;;14.90;91.50;;;;;;6213267;23;20028;-80
2023/04/02 00:38:28;;;;;;;21.75;16.80;;;14.90;91.30;;;;;;6212352;23;20004;-80
2023/04/02 00:40:57;;;;;;;22.08;16.27;;;14.90;91.30;;;;;;6214324;23;20079;-80
2023/04/02 00:43:29;;;;;;;23.27;16.95;;;14.90;91.30;;;;;;6213073;23;20008;-80
2023/04/02 00:46:00;;;;;;;21.65;16.02;;;14.90;91.20;;;;;;6213905;23;20011;-80
2023/04/02 00:49:09;;;;;;;26.88;16.52;;;14.80;91.40;;;;;;6213507;23;20001;-78
2023/04/02 00:51:40;;;;;;;24.52;16.05;;;14.80;91.20;;;;;;6213631;23;20388;-79
2023/04/02 00:54:14;;;;;;;27.35;17.23;;;14.80;91.40;;;;;;6186943;23;20446;-78
2023/04/02 00:56:44;;;;;;;24.50;17.63;;;14.80;91.40;;;;;;6187682;23;20005;-78
2023/04/02 00:59:32;;;;;;;23.52;16.98;;;14.80;91.40;;;;;;6212864;23;20024;-78
2023/04/02 01:02:28;;;;;;;24.13;17.23;;;14.80;91.40;;;;;;6213661;23;20051;-79
2023/04/02 01:04:56;;;;;;;24.02;17.20;;;14.80;91.50;;;;;;6213322;23;20080;-79
2023/04/02 01:07:58;;;;;;;24.83;16.55;;;14.80;91.50;;;;;;6212722;23;20012;-79
2023/04/02 01:10:23;;;;;;;20.73;15.32;;;14.80;91.50;;;;;;6142379;23;20012;-80
2023/04/02 01:13:15;;;;;;;26.52;17.70;;;14.80;91.50;;;;;;6213766;23;20001;-80
2023/04/02 01:15:52;;;;;;;21.73;15.10;;;14.70;91.40;;;;;;6185644;23;20308;-80
2023/04/02 01:18:32;;;;;;;21.90;15.70;;;14.70;91.60;;;;;;6213800;23;19997;-79
2023/04/02 01:21:20;;;;;;;21.43;15.80;;;14.80;91.40;;;;;;6213154;23;20032;-79
2023/04/02 01:23:59;;;;;;;27.10;17.05;;;14.80;91.50;;;;;;6213393;23;20015;-79
2023/04/02 01:26:45;;;;;;;23.88;15.93;;;14.80;91.50;;;;;;6213238;23;20012;-79
2023/04/02 01:29:15;;;;;;;21.67;17.17;;;14.80;91.70;;;;;;6213909;23;20004;-79
2023/04/02 01:31:43;;;;;;;22.95;16.45;;;14.70;91.70;;;;;;6214334;23;20030;-79
2023/04/02 01:34:12;;;;;;;23.88;16.08;;;14.80;91.60;;;;;;6213506;23;20067;-79
2023/04/02 01:36:53;;;;;;;24.48;16.70;;;14.70;91.80;;;;;;6214013;23;19996;-79
2023/04/02 01:39:28;;;;;;;22.25;16.38;;;14.70;91.70;;;;;;6186652;23;20012;-80
2023/04/02 01:42:20;;;;;;;22.80;16.85;;;14.70;91.70;;;;;;6213855;23;20005;-79
2023/04/02 01:44:52;;;;;;;24.05;17.02;;;14.70;91.80;;;;;;6214372;23;20001;-79
2023/04/02 01:47:21;;;;;;;26.77;17.52;;;14.70;91.80;;;;;;6215279;23;20033;-79
2023/04/02 01:49:47;;;;;;;25.80;17.25;;;14.70;91.80;;;;;;6214976;23;20000;-79
2023/04/02 01:52:24;;;;;;;27.70;17.15;;;14.70;91.70;;;;;;6216272;23;20012;-79
2023/04/02 01:54:52;;;;;;;23.88;17.80;;;14.80;91.80;;;;;;6216306;23;20001;-79
2023/04/02 01:57:18;;;;;;;23.75;17.13;;;14.70;91.80;;;;;;6216298;23;20000;-80
2023/04/02 01:59:44;;;;;;;28.48;18.77;;;14.70;91.80;;;;;;6216858;23;20008;-79
2023/04/02 02:02:12;;;;;;;27.27;18.67;;;14.70;91.80;;;;;;6215683;23;20008;-80
2023/04/02 02:04:39;;;;;;;29.60;19.63;;;14.70;91.80;;;;;;6214876;23;20036;-79
2023/04/02 02:07:09;;;;;;;25.20;18.92;;;14.60;91.70;;;;;;6214703;23;20489;-80
2023/04/02 02:09:35;;;;;;;25.52;18.83;;;14.70;92.00;;;;;;6215316;23;20012;-80
2023/04/02 02:12:02;;;;;;;28.60;18.75;;;14.60;91.90;;;;;;6215271;23;20001;-80
2023/04/02 02:14:29;;;;;;;29.63;18.67;;;14.60;92.00;;;;;;6215106;23;20005;-79
2023/04/02 02:17:00;;;;;;;27.60;20.23;;;14.60;91.90;;;;;;6215299;23;20004;-79
2023/04/02 02:19:50;;;;;;;27.67;19.05;;;14.60;92.00;;;;;;6215147;23;20412;-77
2023/04/02 02:22:36;;;;;;;28.08;19.95;;;14.60;91.80;;;;;;6215446;23;20046;-79
2023/04/02 02:25:10;;;;;;;26.45;19.65;;;14.60;91.90;;;;;;6215279;23;20012;-80
2023/04/02 02:27:54;;;;;;;27.27;20.02;;;14.60;91.70;;;;;;6215871;23;20004;-79
2023/04/02 02:30:23;;;;;;;24.50;18.85;;;14.60;91.80;;;;;;6214429;23;20001;-79
2023/04/02 02:33:19;;;;;;;23.95;18.50;;;14.50;91.60;;;;;;6215622;23;20374;-80
2023/04/02 02:35:52;;;;;;;24.75;16.70;;;14.50;91.80;;;;;;6215605;23;20420;-79
2023/04/02 02:38:26;;;;;;;23.95;17.45;;;14.50;91.80;;;;;;6215275;23;20107;-79
2023/04/02 02:40:59;;;;;;;22.00;17.65;;;14.50;91.80;;;;;;6214820;23;20415;-78
2023/04/02 02:43:26;;;;;;;23.88;17.08;;;14.50;91.70;;;;;;6188332;23;20004;-79
2023/04/02 02:45:54;;;;;;;22.23;17.30;;;14.50;91.50;;;;;;6214567;23;20058;-80
2023/04/02 02:48:24;;;;;;;26.10;17.77;;;14.40;91.40;;;;;;6215620;23;20000;-79
2023/04/02 02:50:50;;;;;;;24.77;18.35;;;;;;;;;;6215429;23;20062;-80
2023/04/02 02:53:23;;;;;;;21.63;16.73;;;14.50;91.40;;;;;;6214696;23;19996;-80
2023/04/02 02:55:57;;;;;;;20.27;16.00;;;14.40;91.30;;;;;;6188284;23;20083;-80
2023/04/02 02:58:30;;;;;;;24.13;17.08;;;14.40;91.40;;;;;;6214949;23;20005;-80
2023/04/02 03:00:57;;;;;;;20.75;15.10;;;14.40;91.40;;;;;;6215262;23;20001;-80
2023/04/02 03:03:27;;;;;;;23.25;17.25;;;14.30;91.20;;;;;;6214525;23;20008;-80
2023/04/02 03:05:55;;;;;;;;;;;14.20;91.30;;;;;;6189202;23;20381;-80
2023/04/02 03:08:31;;;;;;;18.55;13.90;;;14.20;91.30;;;;;;6188507;23;19910;-80
2023/04/02 03:11:21;;;;;;;18.50;13.52;;;14.10;91.40;;;;;;6215867;23;20349;-80
2023/04/02 03:13:48;;;;;;;;;;;14.10;91.50;;;;;;6145705;23;20004;-80
2023/04/02 03:16:20;;;;;;;22.13;13.98;;;14.10;91.30;;;;;;6216853;23;19977;-80
2023/04/02 03:19:01;;;;;;;20.73;14.45;;;14.00;91.30;;;;;;6214357;23;20370;-80
2023/04/02 03:22:11;;;;;;;21.20;13.68;;;14.00;91.50;;;;;;6215147;23;20001;-79
2023/04/02 03:24:40;;;;;;;26.00;15.88;;;13.90;91.50;;;;;;6214850;23;20084;-80
2023/04/02 03:27:25;;;;;;;20.45;14.55;;;13.90;91.50;;;;;;6223013;23;20004;-80
2023/04/02 03:30:03;;;;;;;18.77;14.43;;;14.00;91.50;;;;;;6218414;23;20005;-79
2023/04/02 03:32:31;;;;;;;17.65;14.90;;;;;;;;;;6215637;23;20121;-80
2023/04/02 03:35:08;;;;;;;18.52;14.15;;;14.00;91.30;;;;;;6216583;23;20339;-80
2023/04/02 03:37:45;;;;;;;21.23;15.10;;;14.00;91.50;;;;;;6217642;23;20023;-80
2023/04/02 03:40:23;;;;;;;19.13;14.00;;;14.00;91.50;;;;;;6216854;23;20001;-81
2023/04/02 03:42:59;;;;;;;19.85;14.68;;;14.00;91.50;;;;;;6216247;23;20040;-80
2023/04/02 03:45:35;;;;;;;24.05;17.00;;;14.00;91.30;;;;;;6226185;23;19997;-81
2023/04/02 03:48:10;;;;;;;17.67;13.82;;;14.00;91.20;;;;;;6218996;23;20353;-80
2023/04/02 03:50:54;;;;;;;18.33;13.20;;;14.00;91.20;;;;;;6216661;23;20000;-80
2023/04/02 03:53:24;;;;;;;22.92;15.07;;;14.10;91.40;;;;;;6215840;23;19997;-79
2023/04/02 03:55:50;;;;;;;20.67;15.10;;;14.10;91.20;;;;;;6217531;23;19997;-79
2023/04/02 03:58:20;;;;;;;22.33;14.77;;;14.10;91.10;;;;;;6219326;23;20035;-80
2023/04/02 04:01:05;;;;;;;22.15;15.55;;;14.10;91.20;;;;;;6220690;23;20000;-80
2023/04/02 04:03:36;;;;;;;17.85;13.13;;;14.10;91.20;;;;;;6238879;23;20007;-80
2023/04/02 04:06:09;;;;;;;17.92;12.82;;;14.10;91.10;;;;;;6239296;23;20005;-79
2023/04/02 04:08:50;;;;;;;16.65;12.57;;;14.10;91.00;;;;;;6239306;23;20210;-80
2023/04/02 04:11:21;;;;;;;18.00;12.18;;;14.10;90.90;;;;;;6234524;23;20035;-80
2023/04/02 04:14:17;;;;;;;17.92;13.05;;;14.10;90.70;;;;;;6230280;23;20003;-79
2023/04/02 04:17:15;;;;;;;15.23;11.38;;;14.10;90.60;;;;;;6203676;23;20000;-79
2023/04/02 04:19:50;;;;;;;16.95;12.35;;;14.00;90.40;;;;;;6214983;23;20005;-79
2023/04/02 04:22:29;;;;;;;12.10;10.38;;;14.10;90.50;;;;;;6217807;23;20001;-79
2023/04/02 04:24:56;;;;;;;15.45;10.48;;;14.10;90.30;;;;;;6217858;23;20005;-80
2023/04/02 04:27:51;;;;;;;12.60;9.80;;;14.10;90.50;;;;;;6216661;23;20009;-80
2023/04/02 04:30:23;;;;;;;14.25;10.10;;;14.10;90.20;;;;;;6213039;23;20016;-79
2023/04/02 04:32:57;;;;;;;19.75;10.98;;;14.10;90.10;;;;;;6215280;23;20099;-78
2023/04/02 04:35:29;;;;;;;13.15;10.65;;;14.10;90.10;;;;;;6215350;23;20434;-79
2023/04/02 04:38:26;;;;;;;13.55;10.38;;;14.00;89.80;;;;;;6215549;23;20000;-81
2023/04/02 04:41:02;;;;;;;13.55;9.68;;;14.00;90.00;;;;;;6187902;23;20316;-76
2023/04/02 04:43:42;;;;;;;14.52;9.93;;;14.10;90.00;;;;;;6216506;23;20212;-78
2023/04/02 04:46:26;;;;;;;19.30;11.43;;;14.10;90.00;;;;;;6214506;23;20008;-76
2023/04/02 04:48:51;;;;;;;12.57;9.50;;;14.00;90.00;;;;;;6214555;23;20028;-77
2023/04/02 04:51:20;;;;;;;13.73;10.02;;;14.10;90.10;;;;;;6213384;23;20012;-77
2023/04/02 04:53:48;;;;;;;14.38;10.23;;;14.10;89.50;;;;;;6213625;23;19997;-77
2023/04/02 04:56:17;;;;;;;14.73;9.70;;;14.10;89.60;;;;;;6214006;23;20004;-78
2023/04/02 04:58:51;;;;;;;14.43;9.43;;;14.10;90.00;;;;;;6215395;23;20012;-78
2023/04/02 05:01:55;;;;;;;14.18;9.52;;;14.10;89.90;;;;;;6214662;23;20079;-78
2023/04/02 05:04:27;;;;;;;14.23;10.48;;;14.10;89.40;;;;;;6138387;23;20067;-78
2023/04/02 05:07:02;;;;;;;14.43;9.40;;;14.10;89.40;;;;;;6215149;23;20139;-78
2023/04/02 05:09:36;;;;;;;14.13;9.52;;;14.20;89.30;;;;;;6188780;23;20017;-78
2023/04/02 05:12:02;;;;;;;11.25;9.48;;;;;;;;;;6217903;23;20009;-84
2023/04/02 05:14:44;;;;;;;12.60;9.32;;;14.10;89.20;;;;;;6191006;23;20012;-84
2023/04/02 05:17:25;;;;;;;13.80;8.95;;;14.20;89.20;;;;;;6216043;23;20423;-82
2023/04/02 05:20:23;;;;;;;12.32;9.57;;;14.20;89.00;;;;;;6191272;23;20004;-81
2023/04/02 05:22:51;;;;;;;12.18;9.30;;;14.20;89.00;;;;;;6212218;23;20008;-80
2023/04/02 05:25:22;;;;;;;12.20;9.10;;;14.20;88.80;;;;;;6217384;23;20304;-81
2023/04/02 05:28:06;;;;;;;14.02;9.52;;;14.30;88.80;;;;;;6218011;23;20040;-81
2023/04/02 05:30:38;;;;;;;10.90;8.77;;;;;;;;;;6217612;23;20005;-81
2023/04/02 05:33:26;;;;;;;13.18;8.65;;;14.30;88.40;;;;;;6218781;23;20000;-81
2023/04/02 05:36:06;;;;;;;9.50;8.18;;;14.30;88.40;;;;;;6217819;23;20004;-81
2023/04/02 05:38:38;;;;;;;12.20;8.50;;;14.30;88.40;;;;;;6215688;23;20008;-79
2023/04/02 05:41:07;;;;;;;12.02;8.77;;;14.30;88.40;;;;;;6217449;23;20001;-79
2023/04/02 05:43:36;;;;;;;14.52;8.93;;;14.30;88.40;;;;;;6220686;23;20008;-79
2023/04/02 05:46:13;;;;;;;10.05;7.75;;;14.30;88.20;;;;;;6196855;23;20083;-91
2023/04/02 05:48:42;;;;;;;11.88;8.98;;;14.30;88.30;;;;;;6216179;23;20011;-83
2023/04/02 05:51:49;;;;;;;11.73;7.25;;;14.40;89.70;;;;;;6214713;23;20009;-82
2023/04/02 05:54:26;;;;;;;9.35;7.35;;;14.40;88.40;;;;;;6157136;23;20008;-83
2023/04/02 05:57:02;;;;;;;11.10;7.38;;;;;;;;;;6188144;23;20004;-83
2023/04/02 05:59:38;;;;;;;13.60;7.68;;;;;;;;;;6214983;23;20059;-83
2023/04/02 06:02:35;;;;;;;8.75;6.78;;;14.50;87.10;;;;;;6187762;23;20054;-84
2023/04/02 06:05:23;;;;;;;9.73;5.90;;;14.50;87.80;;;;;;6188151;23;20004;-84
2023/04/02 06:08:00;;;;;;;10.60;7.28;;;14.60;88.40;;;;;;6215479;23;20011;-84
2023/04/02 06:10:32;;;;;;;9.25;7.28;;;14.70;88.60;;;;;;6214531;23;20012;-85
2023/04/02 06:13:02;;;;;;;13.10;7.03;;;14.80;87.30;;;;;;6189278;23;20008;-85
2023/04/02 06:15:30;;;;;;;11.50;8.02;;;14.90;87.80;;;;;;6215019;23;20004;-85
2023/04/02 06:18:06;;;;;;;10.32;6.88;;;15.00;87.20;;;;;;6213834;23;20005;-84
2023/04/02 06:20:32;;;;;;;9.30;6.82;;;14.90;86.10;;;;;;6214971;23;19997;-84
2023/04/02 06:23:05;;;;;;;13.40;8.95;;;14.90;85.50;;;;;;6215767;23;20038;-85
2023/04/02 06:25:38;;;;;;;10.60;7.35;;;14.80;85.90;;;;;;6214749;23;20015;-78
2023/04/02 06:28:14;;;;;;;8.57;6.55;;;14.90;86.50;;;;;;6215271;23;20028;-84
2023/04/02 06:30:42;;;;;;;8.52;6.57;;;14.80;86.20;;;;;;6188451;23;20052;-84
2023/04/02 06:33:11;;;;;;;10.25;6.93;;;14.90;86.10;;;;;;6223797;22;20012;-77
2023/04/02 06:35:42;;;;;;;9.45;6.05;;;14.90;86.70;;;;;;6244773;23;20000;-77
2023/04/02 06:38:35;;;;;;;10.70;6.70;;;15.00;86.80;;;;;;6218514;23;20048;-76
2023/04/02 06:41:07;;;;;;;14.02;6.40;;;15.00;85.50;;;;;;6217885;23;20008;-79
2023/04/02 06:43:44;;;;;;;10.02;5.90;;;15.00;86.30;;;;;;6245618;23;20007;-78
2023/04/02 06:46:20;;;;;;;7.38;5.50;;;15.10;85.90;;;;;;6218133;23;20004;-76
2023/04/02 06:48:48;;;;;;;9.35;6.00;;;15.10;86.40;;;;;;6245822;23;20000;-77
2023/04/02 06:51:17;;;;;;;7.93;6.05;;;15.10;86.40;;;;;;6243023;23;20008;-77
2023/04/02 06:53:50;;;;;;;9.77;5.82;;;15.20;86.30;;;;;;6245357;23;20031;-77
2023/04/02 06:56:30;;;;;;;12.75;6.82;;;15.40;85.90;;;;;;6245188;23;20000;-76
2023/04/02 06:58:57;;;;;;;;;;;15.40;85.60;;;;;;6245733;23;19996;-77
2023/04/02 07:01:32;;;;;;;10.90;6.60;;;15.60;85.20;;;;;;6218143;23;20357;-77
2023/04/02 07:03:58;;;;;;;9.15;6.35;;;15.60;85.30;;;;;;6218424;23;20031;-76
2023/04/02 07:06:24;;;;;;;8.05;6.32;;;15.70;85.70;;;;;;6244349;23;20005;-78
2023/04/02 07:08:50;;;;;;;8.80;6.15;;;;;;;;;;6229911;22;20349;-78
2023/04/02 07:11:20;;;;;;;8.60;6.20;;;15.80;85.10;;;;;;6214341;23;20025;-77
2023/04/02 07:13:46;;;;;;;9.40;6.25;;;15.90;85.40;;;;;;6215392;23;20083;-78
2023/04/02 07:16:21;;;;;;;10.65;6.72;;;16.00;85.40;;;;;;6216008;23;20001;-78
2023/04/02 07:18:48;;;;;;;8.88;6.03;;;16.10;84.40;;;;;;6189289;23;20020;-78
2023/04/02 07:21:13;;;;;;;9.55;5.07;;;16.20;84.40;;;;;;6215523;23;20415;-78
2023/04/02 07:23:40;;;;;;;10.00;6.05;;;16.20;84.90;;;;;;6215569;23;20008;-78
2023/04/02 07:26:08;;;;;;;7.80;5.85;;;16.30;83.10;;;;;;6216010;23;20008;-78
2023/04/02 07:28:34;;;;;;;9.27;5.18;;;16.30;84.20;;;;;;6215803;23;20011;-78
2023/04/02 07:31:00;;;;;;;8.25;4.85;;;16.40;83.40;;;;;;6215960;23;20004;-77
2023/04/02 07:33:28;;;;;;;6.80;4.82;;;16.50;83.30;;;;;;6189016;23;20306;-77
2023/04/02 07:35:56;;;;;;;7.13;4.70;;;16.50;83.20;;;;;;6189260;23;20312;-77
2023/04/02 07:38:22;;;;;;;5.95;4.55;;;16.60;83.10;;;;;;6215640;23;20004;-78
2023/04/02 07:40:47;;;;;;;8.05;5.03;;;16.60;83.50;;;;;;6215298;23;20005;-77
2023/04/02 07:43:13;;;;;;;9.05;5.00;;;16.70;83.10;;;;;;6215050;23;20658;-78
2023/04/02 07:45:39;;;;;;;7.82;4.88;;;16.80;82.90;;;;;;6213890;23;20001;-78
2023/04/02 07:48:05;;;;;;;7.82;5.43;;;16.90;82.80;;;;;;6211462;23;20004;-78
2023/04/02 07:50:32;;;;;;;7.10;5.00;;;17.00;82.60;;;;;;6214654;23;20486;-78
2023/04/02 07:52:57;;;;;;;6.32;4.68;;;17.10;81.20;;;;;;6214920;23;19997;-81
2023/04/02 07:55:23;;;;;;;8.98;5.18;;;17.20;80.30;;;;;;6213738;23;20046;-78
2023/04/02 07:57:50;;;;;;;6.03;4.50;;;17.10;80.70;;;;;;6212497;23;20000;-83
2023/04/02 08:00:17;;;;;;;5.82;3.72;;;17.20;80.40;;;;;;6215884;23;19997;-78
2023/04/02 08:02:43;;;;;;;6.28;4.30;;;17.20;80.50;;;;;;6188741;23;20087;-78
2023/04/02 08:05:09;;;;;;;9.88;4.82;;;17.30;79.80;;;;;;6215085;23;20005;-78
2023/04/02 08:07:36;;;;;;;9.30;5.00;;;17.20;79.70;;;;;;6188509;23;20094;-78
2023/04/02 08:10:03;;;;;;;10.20;5.93;;;17.30;79.80;;;;;;6215549;23;20039;-78
2023/04/02 08:12:28;;;;;;;7.88;5.32;;;17.40;80.00;;;;;;6215757;23;20008;-78
2023/04/02 08:14:54;;;;;;;7.68;5.30;;;17.40;80.50;;;;;;6215833;23;20072;-78
2023/04/02 08:17:20;;;;;;;9.05;5.10;;;17.50;80.40;;;;;;6215273;23;20000;-78
2023/04/02 08:19:46;;;;;;;6.03;4.53;;;17.70;80.00;;;;;;6215278;23;20003;-79
2023/04/02 08:22:12;;;;;;;12.55;5.45;;;17.80;80.00;;;;;;6216130;23;20415;-78
2023/04/02 08:24:38;;;;;;;7.57;5.47;;;17.90;78.70;;;;;;6215903;23;20059;-78
2023/04/02 08:27:04;;;;;;;7.93;5.35;;;17.90;78.10;;;;;;6215585;23;20011;-78
2023/04/02 08:29:31;;;;;;;8.98;5.00;;;17.80;78.60;;;;;;6215480;23;20005;-78
2023/04/02 08:32:00;;;;;;;11.38;5.82;;;17.80;78.90;;;;;;6215236;23;20004;-78
2023/04/02 08:34:27;;;;;;;7.43;4.90;;;17.80;79.10;;;;;;6216102;23;20059;-78
2023/04/02 08:36:57;;;;;;;11.70;5.28;;;17.80;79.70;;;;;;6215872;23;20000;-78
2023/04/02 08:39:25;;;;;;;6.63;4.82;;;17.80;79.50;;;;;;6214987;23;20433;-78
2023/04/02 08:42:06;;;;;;;9.65;4.93;;;17.50;79.50;;;;;;6189086;23;20032;-78
2023/04/02 08:45:05;;;;;;;;;;;17.50;79.90;;;;;;6215352;23;20001;-78
2023/04/02 08:47:36;;;;;;;9.25;4.53;;;17.50;80.20;;;;;;6191598;23;19903;-79
2023/04/02 08:50:14;;;;;;;8.30;4.15;;;17.60;80.30;;;;;;6214506;23;20456;-78
2023/04/02 08:52:40;;;;;;;7.97;4.03;;;17.60;79.70;;;;;;6215159;23;20486;-78
2023/04/02 08:55:36;;;;;;;7.28;3.97;;;17.70;79.60;;;;;;6215044;23;20021;-78
2023/04/02 08:58:12;;;;;;;8.70;4.03;;;17.90;79.50;;;;;;6214071;23;20028;-77
2023/04/02 09:00:40;;;;;;;6.57;4.50;;;17.80;79.90;;;;;;6214547;23;20051;-77
2023/04/02 09:03:15;;;;;;;5.65;3.88;;;17.90;79.90;;;;;;6215221;23;20015;-77
2023/04/02 09:05:43;;;;;;;8.75;4.18;;;18.00;79.50;;;;;;6214856;23;20432;-78
2023/04/02 09:08:19;;;;;;;9.15;4.07;;;18.10;79.90;;;;;;6214942;23;20001;-78
2023/04/02 09:11:16;;;;;;;6.88;3.75;;;18.20;79.20;;;;;;6215092;23;20020;-78
2023/04/02 09:13:45;;;;;;;7.22;3.95;;;18.20;79.70;;;;;;6215256;23;20007;-79
2023/04/02 09:16:16;;;;;;;9.10;3.63;;;18.30;79.40;;;;;;6215478;23;20351;-78
2023/04/02 09:18:43;;;;;;;6.60;3.92;;;18.30;79.10;;;;;;6214871;23;19997;-78
2023/04/02 09:21:22;;;;;;;7.95;4.22;;;18.40;79.10;;;;;;6215287;23;20008;-79
2023/04/02 09:23:48;;;;;;;6.25;3.22;;;18.50;77.50;;;;;;6215379;23;20414;-78
2023/04/02 09:26:29;;;;;;;6.75;4.05;;;18.60;78.20;;;;;;6215583;23;20023;-78
2023/04/02 09:29:20;;;;;;;7.60;3.90;;;18.80;77.20;;;;;;6215742;23;20015;-78
2023/04/02 09:32:20;;;;;;;3.47;2.85;;;18.90;75.30;;;;;;6214649;23;20058;-78
2023/04/02 09:34:46;;;;;;;6.53;4.00;;;19.10;76.10;;;;;;6215621;23;20024;-78
2023/04/02 09:37:18;;;;;;;7.30;3.80;;;19.30;71.10;;;;;;6215608;23;20231;-78
2023/04/02 09:39:44;;;;;;;7.22;3.92;;;19.40;72.20;;;;;;6188821;23;20331;-78
2023/04/02 09:42:30;;;;;;;6.88;3.90;;;19.40;72.70;;;;;;6215940;23;20001;-78
2023/04/02 09:45:22;;;;;;;5.63;3.97;;;19.50;70.80;;;;;;6215668;23;20004;-78
2023/04/02 09:47:51;;;;;;;7.75;3.83;;;19.50;72.10;;;;;;6188664;23;20015;-78
2023/04/02 09:50:32;;;;;;;5.45;3.28;;;19.60;72.30;;;;;;6215275;23;20032;-79
2023/04/02 09:53:19;;;;;;;9.27;3.70;;;19.90;72.60;;;;;;6215290;23;20645;-78
2023/04/02 09:55:45;;;;;;;5.28;3.38;;;20.10;72.70;;;;;;6215002;23;20046;-78
2023/04/02 09:58:12;;;;;;;6.13;3.67;;;20.20;70.60;;;;;;6215673;23;20001;-78
2023/04/02 10:00:39;;;;;;;6.93;3.53;;;20.30;71.50;;;;;;6215163;23;20072;-79
2023/04/02 10:03:20;;;;;;;6.30;3.47;;;20.50;71.20;;;;;;6216011;23;20001;-79
2023/04/02 10:05:47;;;;;;;5.35;2.92;;;20.60;69.20;;;;;;6215307;23;20059;-78
2023/04/02 10:08:26;;;;;;;7.35;4.13;;;20.80;69.70;;;;;;6189263;23;20144;-80
2023/04/02 10:10:55;;;;;;;4.80;3.50;;;20.90;66.50;;;;;;6189445;23;20564;-78
2023/04/02 10:13:47;;;;;;;5.55;3.20;;;21.00;67.50;;;;;;6216910;23;20403;-79
2023/04/02 10:16:36;;;;;;;6.55;3.30;;;20.90;67.60;;;;;;6217304;23;20419;-78
2023/04/02 10:19:22;;;;;;;6.25;3.00;;;21.00;67.50;;;;;;6215785;23;20012;-78
2023/04/02 10:21:49;;;;;;;5.93;3.10;;;21.20;68.10;;;;;;6216187;23;20031;-79
2023/04/02 10:24:16;;;;;;;6.20;3.28;;;21.60;66.30;;;;;;6216086;23;20001;-84
2023/04/02 10:27:28;;;;;;;8.30;3.78;;;21.60;66.00;;;;;;6216737;23;20411;-84
2023/04/02 10:30:21;;;;;;;9.75;3.60;;;21.70;67.70;;;;;;6066472;23;20039;-77
2023/04/02 10:33:02;;;;;;;7.70;3.60;;;21.90;67.30;;;;;;6214972;23;20001;-77
2023/04/02 10:35:52;;;;;;;7.32;3.67;;;22.10;67.30;;;;;;6214358;23;20435;-77
2023/04/02 10:38:26;;;;;;;;;;;22.30;64.10;;;;;;6188395;23;20012;-76
2023/04/02 10:41:03;;;;;;;6.57;3.80;;;22.40;64.90;;;;;;6215563;23;20303;-77
2023/04/02 10:43:49;;;;;;;7.50;4.32;;;22.30;65.00;;;;;;6215114;23;20024;-77
2023/04/02 10:46:20;;;;;;;5.28;3.58;;;22.20;62.30;;;;;;6188710;23;20090;-78
2023/04/02 10:48:50;;;;;;;4.72;2.63;;;22.30;65.10;;;;;;6215406;23;20015;-76
2023/04/02 10:51:37;;;;;;;4.35;2.97;;;22.30;65.60;;;;;;6215341;23;20004;-76
2023/04/02 10:54:21;;;;;;;4.28;2.90;;;22.30;65.20;;;;;;6188908;23;20082;-76
2023/04/02 10:56:51;;;;;;;4.90;3.13;;;22.30;65.00;;;;;;6215674;23;20028;-76
2023/04/02 11:13:53;;;;;;;7.53;4.45;;;23.30;62.30;;;;;;6228066;22;1335821;-77
2023/04/02 11:16:19;;;;;;;5.70;3.05;;;23.30;61.80;;;;;;6283227;22;20012;-78
2023/04/02 11:19:07;;;;;;;5.80;3.42;;;23.40;62.90;;;;;;6281676;22;20007;-77
2023/04/02 11:22:03;;;;;;;5.43;3.22;;;23.60;61.20;;;;;;6282731;22;20091;-77
2023/04/02 11:24:31;;;;;;;3.90;2.97;;;23.80;61.00;;;;;;6283343;22;20436;-76
2023/04/02 11:27:06;;;;;;;5.30;3.08;;;23.70;57.90;;;;;;6283510;22;20000;-77
2023/04/02 11:29:33;;;;;;;9.32;3.40;;;23.70;58.80;;;;;;6283103;22;20027;-78
2023/04/02 11:32:27;;;;;;;4.55;2.70;;;23.80;58.80;;;;;;6283144;22;20003;-78
2023/04/02 11:34:53;;;;;;;4.45;3.40;;;23.80;58.60;;;;;;6279105;22;20004;-78
2023/04/02 11:37:37;;;;;;;10.15;4.38;;;24.00;60.30;;;;;;6282241;22;20056;-78
2023/04/02 11:40:14;;;;;;;5.60;3.83;;;25.00;60.70;;;;;;6283337;22;20121;-78
2023/04/02 11:42:44;;;;;;;5.68;3.25;;;26.30;58.80;;;;;;6256131;22;20087;-79
2023/04/02 11:45:22;;;;;;;5.70;3.30;;;27.60;57.10;;;;;;6283345;22;20028;-78
2023/04/02 11:47:59;;;;;;;6.55;3.00;;;28.80;54.60;;;;;;6283808;22;20004;-79
2023/04/02 11:50:36;;;;;;;6.55;3.22;;;30.00;52.30;;;;;;6281923;22;20003;-79
2023/04/02 11:53:11;;;;;;;8.45;4.20;;;30.80;48.80;;;;;;6282877;22;20053;-79
2023/04/02 11:55:42;;;;;;;6.63;3.80;;;31.50;47.70;;;;;;6282860;22;20003;-79
2023/04/02 11:58:41;;;;;;;6.85;3.78;;;31.90;47.10;;;;;;6282643;22;20012;-79
2023/04/02 12:01:32;;;;;;;5.35;3.17;;;32.30;46.50;;;;;;6281986;22;20441;-80
2023/04/02 12:04:39;;;;;;;6.00;2.90;;;32.70;43.90;;;;;;6283277;22;20000;-80
2023/04/02 12:07:25;;;;;;;4.13;2.83;;;32.80;42.00;;;;;;6254688;22;20039;-80
2023/04/02 12:09:57;;;;;;;4.72;2.72;;;32.80;42.10;;;;;;6283528;22;19996;-79
2023/04/02 12:12:25;;;;;;;7.57;3.05;;;32.80;42.50;;;;;;6255842;22;20023;-78
2023/04/02 12:14:55;;;;;;;6.05;3.10;;;32.80;42.60;;;;;;6276746;22;20414;-80
2023/04/02 12:17:36;;;;;;;5.35;3.45;;;32.60;41.70;;;;;;6276633;22;20516;-79
2023/04/02 12:20:08;;;;;;;5.75;3.17;;;32.40;42.50;;;;;;6275980;22;20004;-80
2023/04/02 12:22:44;;;;;;;4.30;2.72;;;32.20;42.60;;;;;;6275983;22;20294;-79
2023/04/02 12:25:28;;;;;;;3.65;3.13;;;32.00;41.90;;;;;;6275808;22;20006;-80
2023/04/02 12:28:09;;;;;;;6.07;3.40;;;32.10;43.00;;;;;;6276777;22;20055;-80
2023/04/02 12:30:36;;;;;;;7.57;3.65;;;32.20;42.50;;;;;;6249246;22;20003;-80
2023/04/02 12:33:14;;;;;;;9.07;3.42;;;32.20;42.50;;;;;;6276398;22;20007;-80
2023/04/02 12:35:41;;;;;;;8.60;3.60;;;32.40;41.70;;;;;;6277191;22;20000;-81
2023/04/02 12:38:22;;;;;;;7.28;3.75;;;32.50;42.20;;;;;;6275904;22;20628;-80
2023/04/02 12:41:03;;;;;;;3.70;2.90;;;32.70;41.10;;;;;;6276455;22;20008;-83
2023/04/02 12:43:34;;;;;;;5.22;2.78;;;32.80;40.70;;;;;;6276007;22;20004;-83
2023/04/02 12:46:06;;;;;;;6.10;3.75;;;33.00;39.20;;;;;;6275826;22;19996;-83
2023/04/02 12:48:34;;;;;;;3.72;2.70;;;33.10;39.60;;;;;;6275958;22;20047;-83
2023/04/02 12:51:01;;;;;;;3.60;2.40;;;33.20;39.30;;;;;;6275815;22;19999;-83
2023/04/02 12:53:35;;;;;;;4.82;2.78;;;33.50;39.30;;;;;;6275134;22;20030;-83
2023/04/02 12:56:02;;;;;;;3.78;2.42;;;33.70;38.80;;;;;;6276264;22;20079;-83
2023/04/02 12:58:39;;;;;;;3.38;1.92;;;33.60;37.30;;;;;;6275660;22;19996;-82
2023/04/02 13:01:22;;;;;;;4.38;2.10;;;33.60;37.40;;;;;;6275154;22;20055;-80
2023/04/02 13:04:06;;;;;;;3.50;1.83;;;33.40;36.60;;;;;;6269905;22;20007;-80
2023/04/02 13:06:33;;;;;;;4.70;1.80;;;32.50;35.90;;;;;;6272710;22;20061;-80
2023/04/02 13:09:01;;;;;;;8.60;1.92;;;31.30;36.40;;;;;;6274284;22;20100;-80
2023/04/02 13:11:38;;;;;;;5.22;1.10;;;30.20;39.10;;;;;;6273003;22;20027;-80
2023/04/02 13:14:08;;;;;;;2.45;0.70;;;29.10;40.40;;;;;;6273969;22;20434;-79
2023/04/02 13:16:36;;;;;;;;;;;28.20;40.80;;;;;;6276057;22;20003;-79
2023/04/02 13:19:30;;;;;;;1.98;0.93;;;27.50;41.50;;;;;;6275898;22;20336;-79
2023/04/02 13:21:59;;;;;;;0.65;0.65;;;26.70;42.70;;;;;;6248151;22;20014;-80
2023/04/02 13:24:28;;;;;;;1.73;0.70;;;26.10;43.40;;;;;;6274245;22;20039;-80
2023/04/02 13:26:59;;;;;;;2.28;0.65;;;25.60;44.00;;;;;;6274407;22;20000;-80
2023/04/02 13:29:35;;;;;;;1.77;0.95;;;25.30;43.90;;;;;;6275277;22;20530;-89
2023/04/02 13:32:05;;;;;;;1.48;0.90;;;25.10;44.20;;;;;;6248572;22;20338;-77
2023/04/02 13:34:31;;;;;;;1.85;0.70;;;24.90;44.40;;;;;;6275605;22;20049;-77
2023/04/02 13:36:57;;;;;;;1.85;0.93;;;24.60;44.10;;;;;;6274795;22;20003;-78